sensor_id;sensor_type;location;lat;lon;timestamp;pressure;altitude;pressure_sealevel;temperature;humidity
17525;BME280;40431;52.198;9.902;2023-10-08T00:02:16;101120.66;;;12.74;100.00
17525;BME280;40431;52.198;9.902;2023-10-08T00:04:47;101121.53;;;12.75;100.00
17525;BME280;40431;52.198;9.902;2023-10-08T00:07:16;101121.03;;;12.68;100.00
17525;BME280;40431;52.198;9.902;2023-10-08T00:09:47;101115.78;;;12.65;100.00
17525;BME280;40431;52.198;9.902;2023-10-08T00:12:13;101132.97;;;12.65;100.00
17525;BME280;40431;52.198;9.902;2023-10-08T00:14:41;101157.34;;;12.67;100.00
17525;BME280;40431;52.198;9.902;2023-10-08T00:17:12;101172.13;;;12.63;100.00
17525;BME280;40431;52.198;9.902;2023-10-08T00:19:39;101168.22;;;12.52;100.00
17525;BME280;40431;52.198;9.902;2023-10-08T00:22:08;101176.19;;;12.56;100.00
17525;BME280;40431;52.198;9.902;2023-10-08T00:24:35;101180.75;;;12.55;100.00
17525;BME280;40431;52.198;9.902;2023-10-08T00:27:06;101189.69;;;12.57;100.00
17525;BME280;40431;52.198;9.902;2023-10-08T00:29:33;101187.75;;;12.59;100.00
17525;BME280;40431;52.198;9.902;2023-10-08T00:31:59;101183.00;;;12.63;100.00
17525;BME280;40431;52.198;9.902;2023-10-08T00:34:38;101182.84;;;12.66;100.00
17525;BME280;40431;52.198;9.902;2023-10-08T00:37:07;101177.41;;;12.66;100.00
17525;BME280;40431;52.198;9.902;2023-10-08T00:39:35;101193.31;;;12.72;100.00
17525;BME280;40431;52.198;9.902;2023-10-08T00:42:03;101191.91;;;12.81;100.00
17525;BME280;40431;52.198;9.902;2023-10-08T00:44:33;101201.53;;;12.86;100.00
17525;BME280;40431;52.198;9.902;2023-10-08T00:47:03;101219.19;;;12.95;100.00
17525;BME280;40431;52.198;9.902;2023-10-08T00:49:31;101216.50;;;12.79;100.00
17525;BME280;40431;52.198;9.902;2023-10-08T00:52:15;101229.69;;;12.71;100.00
17525;BME280;40431;52.198;9.902;2023-10-08T00:54:55;101246.09;;;12.53;100.00
17525;BME280;40431;52.198;9.902;2023-10-08T00:57:33;101241.28;;;12.43;100.00
17525;BME280;40431;52.198;9.902;2023-10-08T01:00:02;101253.06;;;12.43;100.00
17525;BME280;40431;52.198;9.902;2023-10-08T01:02:32;101275.34;;;12.34;100.00
17525;BME280;40431;52.198;9.902;2023-10-08T01:05:10;101267.34;;;12.31;100.00
17525;BME280;40431;52.198;9.902;2023-10-08T01:07:40;101260.94;;;12.16;100.00
17525;BME280;40431;52.198;9.902;2023-10-08T01:10:10;101277.44;;;12.13;100.00
17525;BME280;40431;52.198;9.902;2023-10-08T01:12:38;101271.59;;;12.21;100.00
17525;BME280;40431;52.198;9.902;2023-10-08T01:15:19;101290.13;;;12.12;100.00
17525;BME280;40431;52.198;9.902;2023-10-08T01:17:49;101297.41;;;11.96;100.00
17525;BME280;40431;52.198;9.902;2023-10-08T01:20:23;101312.25;;;12.06;100.00
17525;BME280;40431;52.198;9.902;2023-10-08T01:23:04;101337.22;;;11.97;100.00
17525;BME280;40431;52.198;9.902;2023-10-08T01:25:35;101321.59;;;11.83;100.00
17525;BME280;40431;52.198;9.902;2023-10-08T01:28:02;101336.72;;;11.71;100.00
17525;BME280;40431;52.198;9.902;2023-10-08T01:30:34;101333.41;;;11.48;100.00
17525;BME280;40431;52.198;9.902;2023-10-08T01:33:01;101336.75;;;11.53;100.00
17525;BME280;40431;52.198;9.902;2023-10-08T01:35:29;101325.34;;;11.29;100.00
17525;BME280;40431;52.198;9.902;2023-10-08T01:37:57;101322.53;;;10.96;100.00
17525;BME280;40431;52.198;9.902;2023-10-08T01:40:26;101353.41;;;10.74;100.00
17525;BME280;40431;52.198;9.902;2023-10-08T01:42:54;101345.31;;;10.55;100.00
17525;BME280;40431;52.198;9.902;2023-10-08T01:45:25;101369.03;;;10.31;100.00
17525;BME280;40431;52.198;9.902;2023-10-08T01:47:51;101360.97;;;10.29;100.00
17525;BME280;40431;52.198;9.902;2023-10-08T01:50:20;101338.38;;;10.29;100.00
17525;BME280;40431;52.198;9.902;2023-10-08T01:52:47;101370.91;;;10.29;100.00
17525;BME280;40431;52.198;9.902;2023-10-08T01:55:14;101376.75;;;10.19;100.00
17525;BME280;40431;52.198;9.902;2023-10-08T01:57:44;101381.22;;;10.41;100.00
17525;BME280;40431;52.198;9.902;2023-10-08T02:00:12;101374.97;;;10.39;100.00
17525;BME280;40431;52.198;9.902;2023-10-08T02:02:39;101376.31;;;10.49;100.00
17525;BME280;40431;52.198;9.902;2023-10-08T02:05:07;101387.50;;;10.61;100.00
17525;BME280;40431;52.198;9.902;2023-10-08T02:07:34;101388.25;;;10.64;100.00
17525;BME280;40431;52.198;9.902;2023-10-08T02:10:00;101404.94;;;10.74;100.00
17525;BME280;40431;52.198;9.902;2023-10-08T02:12:27;101400.31;;;10.95;100.00
17525;BME280;40431;52.198;9.902;2023-10-08T02:14:55;101388.63;;;11.12;100.00
17525;BME280;40431;52.198;9.902;2023-10-08T02:17:21;101378.78;;;11.29;100.00
17525;BME280;40431;52.198;9.902;2023-10-08T02:19:48;101370.78;;;11.43;100.00
17525;BME280;40431;52.198;9.902;2023-10-08T02:22:14;101363.81;;;11.55;100.00
17525;BME280;40431;52.198;9.902;2023-10-08T02:24:41;101371.28;;;11.69;100.00
17525;BME280;40431;52.198;9.902;2023-10-08T02:27:08;101379.88;;;11.77;100.00
17525;BME280;40431;52.198;9.902;2023-10-08T02:29:35;101373.16;;;11.84;100.00
17525;BME280;40431;52.198;9.902;2023-10-08T02:32:03;101365.53;;;11.91;100.00
17525;BME280;40431;52.198;9.902;2023-10-08T02:34:30;101364.22;;;12.00;100.00
17525;BME280;40431;52.198;9.902;2023-10-08T02:36:57;101358.09;;;12.12;100.00
17525;BME280;40431;52.198;9.902;2023-10-08T02:39:24;101364.97;;;12.19;100.00
17525;BME280;40431;52.198;9.902;2023-10-08T02:41:52;101364.28;;;12.32;100.00
17525;BME280;40431;52.198;9.902;2023-10-08T02:44:20;101345.00;;;12.36;100.00
17525;BME280;40431;52.198;9.902;2023-10-08T02:46:48;101344.75;;;12.41;100.00
17525;BME280;40431;52.198;9.902;2023-10-08T02:49:16;101357.56;;;12.39;100.00
17525;BME280;40431;52.198;9.902;2023-10-08T02:51:46;101362.91;;;12.41;100.00
17525;BME280;40431;52.198;9.902;2023-10-08T02:54:15;101358.53;;;12.38;100.00
17525;BME280;40431;52.198;9.902;2023-10-08T02:56:44;101361.38;;;12.35;100.00
17525;BME280;40431;52.198;9.902;2023-10-08T02:59:11;101364.09;;;12.35;100.00
17525;BME280;40431;52.198;9.902;2023-10-08T03:01:38;101369.31;;;12.40;100.00
17525;BME280;40431;52.198;9.902;2023-10-08T03:04:06;101366.50;;;12.41;100.00
17525;BME280;40431;52.198;9.902;2023-10-08T03:06:41;101378.00;;;12.46;100.00
17525;BME280;40431;52.198;9.902;2023-10-08T03:09:07;101370.81;;;12.45;100.00
17525;BME280;40431;52.198;9.902;2023-10-08T03:11:34;101351.56;;;12.48;100.00
17525;BME280;40431;52.198;9.902;2023-10-08T03:14:02;101348.44;;;12.56;100.00
17525;BME280;40431;52.198;9.902;2023-10-08T03:16:29;101352.66;;;12.62;100.00
17525;BME280;40431;52.198;9.902;2023-10-08T03:19:00;101339.84;;;12.64;100.00
17525;BME280;40431;52.198;9.902;2023-10-08T03:21:26;101343.16;;;12.69;100.00
17525;BME280;40431;52.198;9.902;2023-10-08T03:24:08;101351.34;;;12.69;100.00
17525;BME280;40431;52.198;9.902;2023-10-08T03:26:49;101360.97;;;12.75;100.00
17525;BME280;40431;52.198;9.902;2023-10-08T03:29:20;101371.88;;;12.75;100.00
17525;BME280;40431;52.198;9.902;2023-10-08T03:31:48;101371.88;;;12.75;100.00
17525;BME280;40431;52.198;9.902;2023-10-08T03:34:17;101382.84;;;12.73;100.00
17525;BME280;40431;52.198;9.902;2023-10-08T03:36:45;101395.75;;;12.69;100.00
17525;BME280;40431;52.198;9.902;2023-10-08T03:39:16;101393.09;;;12.68;100.00
17525;BME280;40431;52.198;9.902;2023-10-08T03:41:44;101399.06;;;12.59;100.00
17525;BME280;40431;52.198;9.902;2023-10-08T03:44:23;101412.22;;;12.50;100.00
17525;BME280;40431;52.198;9.902;2023-10-08T03:46:50;101420.56;;;12.47;100.00
17525;BME280;40431;52.198;9.902;2023-10-08T03:49:18;101415.38;;;12.43;100.00
17525;BME280;40431;52.198;9.902;2023-10-08T03:51:52;101415.38;;;12.43;100.00
17525;BME280;40431;52.198;9.902;2023-10-08T03:54:20;101405.28;;;12.45;100.00
17525;BME280;40431;52.198;9.902;2023-10-08T03:56:55;101411.97;;;12.39;100.00
17525;BME280;40431;52.198;9.902;2023-10-08T03:59:21;101417.03;;;12.45;100.00
17525;BME280;40431;52.198;9.902;2023-10-08T04:01:56;101416.72;;;12.51;100.00
17525;BME280;40431;52.198;9.902;2023-10-08T04:04:24;101419.25;;;12.55;100.00
17525;BME280;40431;52.198;9.902;2023-10-08T04:06:56;101416.63;;;12.53;100.00
17525;BME280;40431;52.198;9.902;2023-10-08T04:09:44;101415.91;;;12.49;100.00
17525;BME280;40431;52.198;9.902;2023-10-08T04:12:12;101423.28;;;12.47;100.00
17525;BME280;40431;52.198;9.902;2023-10-08T04:14:43;101421.75;;;12.42;100.00
17525;BME280;40431;52.198;9.902;2023-10-08T04:17:11;101426.25;;;12.43;100.00
17525;BME280;40431;52.198;9.902;2023-10-08T04:19:37;101429.38;;;12.35;100.00
17525;BME280;40431;52.198;9.902;2023-10-08T04:22:05;101438.84;;;12.28;100.00
17525;BME280;40431;52.198;9.902;2023-10-08T04:24:40;101437.03;;;12.11;100.00
17525;BME280;40431;52.198;9.902;2023-10-08T04:27:10;101454.38;;;12.08;100.00
17525;BME280;40431;52.198;9.902;2023-10-08T04:29:36;101444.63;;;12.04;100.00
17525;BME280;40431;52.198;9.902;2023-10-08T04:32:04;101442.25;;;11.98;100.00
17525;BME280;40431;52.198;9.902;2023-10-08T04:34:34;101453.81;;;12.01;100.00
17525;BME280;40431;52.198;9.902;2023-10-08T04:37:01;101443.84;;;12.02;100.00
17525;BME280;40431;52.198;9.902;2023-10-08T04:39:29;101453.03;;;11.99;100.00
17525;BME280;40431;52.198;9.902;2023-10-08T04:41:58;101449.28;;;12.02;100.00
17525;BME280;40431;52.198;9.902;2023-10-08T04:44:32;101457.50;;;12.00;100.00
17525;BME280;40431;52.198;9.902;2023-10-08T04:46:59;101452.31;;;11.96;100.00
17525;BME280;40431;52.198;9.902;2023-10-08T04:49:30;101451.81;;;11.88;100.00
17525;BME280;40431;52.198;9.902;2023-10-08T04:51:59;101463.81;;;11.83;100.00
17525;BME280;40431;52.198;9.902;2023-10-08T04:54:26;101462.69;;;11.88;100.00
17525;BME280;40431;52.198;9.902;2023-10-08T04:56:56;101457.09;;;11.91;100.00
17525;BME280;40431;52.198;9.902;2023-10-08T04:59:25;101460.63;;;11.93;100.00
17525;BME280;40431;52.198;9.902;2023-10-08T05:01:59;101452.78;;;11.86;100.00
17525;BME280;40431;52.198;9.902;2023-10-08T05:04:45;101460.09;;;11.84;100.00
17525;BME280;40431;52.198;9.902;2023-10-08T05:07:43;101475.81;;;11.79;100.00
17525;BME280;40431;52.198;9.902;2023-10-08T05:10:42;101472.09;;;11.80;100.00
17525;BME280;40431;52.198;9.902;2023-10-08T05:13:26;101463.16;;;11.78;100.00
17525;BME280;40431;52.198;9.902;2023-10-08T05:15:58;101466.75;;;11.79;100.00
17525;BME280;40431;52.198;9.902;2023-10-08T05:18:38;101460.44;;;11.78;100.00
17525;BME280;40431;52.198;9.902;2023-10-08T05:21:18;101472.09;;;11.80;100.00
17525;BME280;40431;52.198;9.902;2023-10-08T05:23:53;101474.44;;;11.88;100.00
17525;BME280;40431;52.198;9.902;2023-10-08T05:26:33;101490.00;;;11.84;100.00
17525;BME280;40431;52.198;9.902;2023-10-08T05:29:07;101490.16;;;11.81;100.00
17525;BME280;40431;52.198;9.902;2023-10-08T05:31:48;101497.44;;;11.81;100.00
17525;BME280;40431;52.198;9.902;2023-10-08T05:34:26;101495.91;;;11.75;100.00
17525;BME280;40431;52.198;9.902;2023-10-08T05:36:58;101518.75;;;11.71;100.00
17525;BME280;40431;52.198;9.902;2023-10-08T05:39:57;101520.69;;;11.69;100.00
17525;BME280;40431;52.198;9.902;2023-10-08T05:42:36;101520.69;;;11.69;100.00
17525;BME280;40431;52.198;9.902;2023-10-08T05:45:11;101518.53;;;11.76;100.00
17525;BME280;40431;52.198;9.902;2023-10-08T05:47:39;101540.13;;;11.79;100.00
17525;BME280;40431;52.198;9.902;2023-10-08T05:50:18;101535.88;;;11.73;100.00
17525;BME280;40431;52.198;9.902;2023-10-08T05:53:04;101547.94;;;11.67;100.00
17525;BME280;40431;52.198;9.902;2023-10-08T05:55:44;101540.81;;;11.65;100.00
17525;BME280;40431;52.198;9.902;2023-10-08T05:58:13;101530.91;;;11.64;100.00
17525;BME280;40431;52.198;9.902;2023-10-08T06:00:50;101539.84;;;11.66;100.00
17525;BME280;40431;52.198;9.902;2023-10-08T06:03:34;101559.38;;;11.74;100.00
17525;BME280;40431;52.198;9.902;2023-10-08T06:06:15;101562.88;;;11.76;100.00
17525;BME280;40431;52.198;9.902;2023-10-08T06:09:03;101583.84;;;11.74;100.00
17525;BME280;40431;52.198;9.902;2023-10-08T06:11:47;101576.63;;;11.73;100.00
17525;BME280;40431;52.198;9.902;2023-10-08T06:14:33;101583.09;;;11.70;100.00
17525;BME280;40431;52.198;9.902;2023-10-08T06:17:17;101591.09;;;11.74;100.00
17525;BME280;40431;52.198;9.902;2023-10-08T06:19:49;101588.44;;;11.72;100.00
17525;BME280;40431;52.198;9.902;2023-10-08T06:22:19;101570.38;;;11.71;100.00
17525;BME280;40431;52.198;9.902;2023-10-08T06:24:48;101575.69;;;11.74;100.00
17525;BME280;40431;52.198;9.902;2023-10-08T06:27:23;101588.44;;;11.72;100.00
17525;BME280;40431;52.198;9.902;2023-10-08T06:29:50;101591.00;;;11.75;100.00
17525;BME280;40431;52.198;9.902;2023-10-08T06:32:17;101582.56;;;11.81;100.00
17525;BME280;40431;52.198;9.902;2023-10-08T06:34:47;101592.69;;;11.78;100.00
17525;BME280;40431;52.198;9.902;2023-10-08T06:37:14;101598.00;;;11.81;100.00
17525;BME280;40431;52.198;9.902;2023-10-08T06:39:42;101597.09;;;11.80;100.00
17525;BME280;40431;52.198;9.902;2023-10-08T06:42:13;101593.44;;;11.81;100.00
17525;BME280;40431;52.198;9.902;2023-10-08T06:44:39;101591.81;;;11.77;100.00
17525;BME280;40431;52.198;9.902;2023-10-08T06:47:07;101599.81;;;11.80;100.00
17525;BME280;40431;52.198;9.902;2023-10-08T06:49:35;101616.13;;;11.80;100.00
17525;BME280;40431;52.198;9.902;2023-10-08T06:52:01;101615.91;;;11.85;100.00
17525;BME280;40431;52.198;9.902;2023-10-08T06:54:29;101612.94;;;11.90;100.00
17525;BME280;40431;52.198;9.902;2023-10-08T06:56:57;101618.97;;;11.96;100.00
17525;BME280;40431;52.198;9.902;2023-10-08T06:59:25;101631.72;;;11.96;100.00
17525;BME280;40431;52.198;9.902;2023-10-08T07:01:56;101647.16;;;11.95;100.00
17525;BME280;40431;52.198;9.902;2023-10-08T07:04:24;101647.16;;;11.95;100.00
17525;BME280;40431;52.198;9.902;2023-10-08T07:06:51;101645.28;;;11.96;100.00
17525;BME280;40431;52.198;9.902;2023-10-08T07:09:19;101649.47;;;12.03;100.00
17525;BME280;40431;52.198;9.902;2023-10-08T07:11:54;101642.91;;;12.07;100.00
17525;BME280;40431;52.198;9.902;2023-10-08T07:14:22;101635.09;;;12.01;100.00
17525;BME280;40431;52.198;9.902;2023-10-08T07:16:52;101645.63;;;12.07;100.00
17525;BME280;40431;52.198;9.902;2023-10-08T07:19:20;101658.06;;;12.13;100.00
17525;BME280;40431;52.198;9.902;2023-10-08T07:21:49;101661.88;;;12.09;100.00
17525;BME280;40431;52.198;9.902;2023-10-08T07:24:19;101662.53;;;12.14;100.00
17525;BME280;40431;52.198;9.902;2023-10-08T07:26:47;101671.56;;;12.14;100.00
17525;BME280;40431;52.198;9.902;2023-10-08T07:29:15;101671.56;;;12.14;100.00
17525;BME280;40431;52.198;9.902;2023-10-08T07:31:45;101677.88;;;12.15;100.00
17525;BME280;40431;52.198;9.902;2023-10-08T07:34:14;101684.53;;;12.27;100.00
17525;BME280;40431;52.198;9.902;2023-10-08T07:36:51;101694.97;;;12.36;100.00
17525;BME280;40431;52.198;9.902;2023-10-08T07:39:20;101699.44;;;12.37;100.00
17525;BME280;40431;52.198;9.902;2023-10-08T07:41:51;101699.44;;;12.37;100.00
17525;BME280;40431;52.198;9.902;2023-10-08T07:44:19;101679.59;;;12.35;100.00
17525;BME280;40431;52.198;9.902;2023-10-08T07:46:48;101667.63;;;12.39;100.00
17525;BME280;40431;52.198;9.902;2023-10-08T07:49:14;101669.28;;;12.42;100.00
17525;BME280;40431;52.198;9.902;2023-10-08T07:51:42;101676.56;;;12.41;100.00
17525;BME280;40431;52.198;9.902;2023-10-08T07:54:16;101685.59;;;12.42;100.00
17525;BME280;40431;52.198;9.902;2023-10-08T07:56:45;101684.09;;;12.53;100.00
17525;BME280;40431;52.198;9.902;2023-10-08T07:59:12;101683.63;;;12.63;100.00
17525;BME280;40431;52.198;9.902;2023-10-08T08:01:40;101681.41;;;12.71;100.00
17525;BME280;40431;52.198;9.902;2023-10-08T08:04:09;101688.59;;;12.72;100.00
17525;BME280;40431;52.198;9.902;2023-10-08T08:06:36;101700.13;;;12.77;100.00
17525;BME280;40431;52.198;9.902;2023-10-08T08:09:02;101697.47;;;12.76;100.00
17525;BME280;40431;52.198;9.902;2023-10-08T08:11:33;101708.44;;;12.74;100.00
17525;BME280;40431;52.198;9.902;2023-10-08T08:14:02;101703.88;;;12.75;100.00
17525;BME280;40431;52.198;9.902;2023-10-08T08:16:33;101701.06;;;12.76;100.00
17525;BME280;40431;52.198;9.902;2023-10-08T08:19:02;101701.50;;;12.86;100.00
17525;BME280;40431;52.198;9.902;2023-10-08T08:21:29;101694.53;;;12.98;100.00
17525;BME280;40431;52.198;9.902;2023-10-08T08:23:56;101709.56;;;13.05;100.00
17525;BME280;40431;52.198;9.902;2023-10-08T08:26:30;101715.81;;;13.07;100.00
17525;BME280;40431;52.198;9.902;2023-10-08T08:29:04;101727.66;;;13.06;100.00
17525;BME280;40431;52.198;9.902;2023-10-08T08:31:34;101722.31;;;13.05;100.00
17525;BME280;40431;52.198;9.902;2023-10-08T08:34:02;101725.56;;;13.11;100.00
17525;BME280;40431;52.198;9.902;2023-10-08T08:36:36;101714.69;;;13.11;100.00
17525;BME280;40431;52.198;9.902;2023-10-08T08:39:04;101719.00;;;13.15;100.00
17525;BME280;40431;52.198;9.902;2023-10-08T08:41:36;101716.91;;;13.20;100.00
17525;BME280;40431;52.198;9.902;2023-10-08T08:44:04;101715.69;;;13.26;100.00
17525;BME280;40431;52.198;9.902;2023-10-08T08:46:33;101720.28;;;13.26;100.00
17525;BME280;40431;52.198;9.902;2023-10-08T08:49:02;101720.81;;;13.32;100.00
17525;BME280;40431;52.198;9.902;2023-10-08T08:51:29;101724.28;;;13.36;100.00
17525;BME280;40431;52.198;9.902;2023-10-08T08:53:57;101717.56;;;13.43;100.00
17525;BME280;40431;52.198;9.902;2023-10-08T08:56:26;101735.16;;;13.53;100.00
17525;BME280;40431;52.198;9.902;2023-10-08T08:58:52;101740.25;;;13.60;100.00
17525;BME280;40431;52.198;9.902;2023-10-08T09:01:19;101742.31;;;13.72;100.00
17525;BME280;40431;52.198;9.902;2023-10-08T09:03:46;101733.97;;;13.75;100.00
17525;BME280;40431;52.198;9.902;2023-10-08T09:06:13;101743.00;;;13.76;97.61
17525;BME280;40431;52.198;9.902;2023-10-08T09:08:39;101741.19;;;13.76;95.04
17525;BME280;40431;52.198;9.902;2023-10-08T09:11:15;101746.88;;;13.72;87.61
17525;BME280;40431;52.198;9.902;2023-10-08T09:13:41;101748.31;;;13.79;87.19
17525;BME280;40431;52.198;9.902;2023-10-08T09:16:12;101749.38;;;13.76;91.15
17525;BME280;40431;52.198;9.902;2023-10-08T09:18:38;101760.91;;;13.81;92.81
17525;BME280;40431;52.198;9.902;2023-10-08T09:21:10;101756.84;;;13.89;91.53
17525;BME280;40431;52.198;9.902;2023-10-08T09:23:39;101750.34;;;13.91;87.15
17525;BME280;40431;52.198;9.902;2023-10-08T09:26:08;101757.66;;;13.91;88.74
17525;BME280;40431;52.198;9.902;2023-10-08T09:28:37;101768.09;;;13.98;90.54
17525;BME280;40431;52.198;9.902;2023-10-08T09:31:04;101773.22;;;14.05;89.71
17525;BME280;40431;52.198;9.902;2023-10-08T09:33:32;101777.63;;;14.07;93.16
17525;BME280;40431;52.198;9.902;2023-10-08T09:35:59;101769.13;;;14.13;91.26
17525;BME280;40431;52.198;9.902;2023-10-08T09:38:28;101772.63;;;14.15;87.05
17525;BME280;40431;52.198;9.902;2023-10-08T09:40:55;101772.72;;;14.14;86.21
17525;BME280;40431;52.198;9.902;2023-10-08T09:43:23;101772.53;;;14.17;87.38
17525;BME280;40431;52.198;9.902;2023-10-08T09:46:00;101767.97;;;14.17;87.46
17525;BME280;40431;52.198;9.902;2023-10-08T09:48:36;101766.81;;;14.22;89.01
17525;BME280;40431;52.198;9.902;2023-10-08T09:51:04;101771.75;;;14.31;89.12
17525;BME280;40431;52.198;9.902;2023-10-08T09:53:36;101772.72;;;14.30;88.98
17525;BME280;40431;52.198;9.902;2023-10-08T09:56:13;101768.94;;;14.32;82.62
17525;BME280;40431;52.198;9.902;2023-10-08T09:58:41;101756.97;;;14.35;83.81
17525;BME280;40431;52.198;9.902;2023-10-08T10:01:10;101761.28;;;14.39;83.09
17525;BME280;40431;52.198;9.902;2023-10-08T10:03:38;101748.34;;;14.43;81.88
17525;BME280;40431;52.198;9.902;2023-10-08T10:06:11;101761.69;;;14.47;78.69
17525;BME280;40431;52.198;9.902;2023-10-08T10:08:40;101757.47;;;14.42;81.99
17525;BME280;40431;52.198;9.902;2023-10-08T10:11:07;101755.63;;;14.42;83.13
17525;BME280;40431;52.198;9.902;2023-10-08T10:13:35;101753.25;;;14.52;83.53
17525;BME280;40431;52.198;9.902;2023-10-08T10:16:04;101755.28;;;14.48;80.05
17525;BME280;40431;52.198;9.902;2023-10-08T10:18:34;101740.78;;;14.32;81.97
17525;BME280;40431;52.198;9.902;2023-10-08T10:21:24;101739.25;;;14.42;79.40
17525;BME280;40431;52.198;9.902;2023-10-08T10:23:49;101753.06;;;14.55;81.27
17525;BME280;40431;52.198;9.902;2023-10-08T10:26:23;101753.16;;;14.69;81.46
17525;BME280;40431;52.198;9.902;2023-10-08T10:29:17;101767.53;;;14.73;79.74
17525;BME280;40431;52.198;9.902;2023-10-08T10:31:45;101772.19;;;14.71;79.55
17525;BME280;40431;52.198;9.902;2023-10-08T10:34:13;101766.63;;;14.73;79.72
17525;BME280;40431;52.198;9.902;2023-10-08T10:36:42;101767.78;;;14.68;78.27
17525;BME280;40431;52.198;9.902;2023-10-08T10:39:10;101774.09;;;14.69;78.31
17525;BME280;40431;52.198;9.902;2023-10-08T10:41:42;101785.94;;;14.69;79.31
17525;BME280;40431;52.198;9.902;2023-10-08T10:44:10;101798.41;;;14.58;77.42
17525;BME280;40431;52.198;9.902;2023-10-08T10:46:36;101790.31;;;14.56;78.63
17525;BME280;40431;52.198;9.902;2023-10-08T10:49:07;101791.88;;;14.60;79.32
17525;BME280;40431;52.198;9.902;2023-10-08T10:51:42;101798.41;;;14.58;78.74
17525;BME280;40431;52.198;9.902;2023-10-08T10:54:10;101800.00;;;14.62;79.59
17525;BME280;40431;52.198;9.902;2023-10-08T10:56:36;101786.78;;;14.70;78.06
17525;BME280;40431;52.198;9.902;2023-10-08T10:59:08;101782.38;;;14.83;78.22
17525;BME280;40431;52.198;9.902;2023-10-08T11:01:45;101774.31;;;14.96;78.60
17525;BME280;40431;52.198;9.902;2023-10-08T11:04:17;101780.09;;;15.06;78.29
17525;BME280;40431;52.198;9.902;2023-10-08T11:06:48;101776.03;;;15.13;76.58
17525;BME280;40431;52.198;9.902;2023-10-08T11:09:17;101778.38;;;15.19;78.06
17525;BME280;40431;52.198;9.902;2023-10-08T11:12:01;101785.94;;;15.30;77.47
17525;BME280;40431;52.198;9.902;2023-10-08T11:14:36;101798.03;;;15.41;75.82
17525;BME280;40431;52.198;9.902;2023-10-08T11:17:09;101781.28;;;15.47;76.24
17525;BME280;40431;52.198;9.902;2023-10-08T11:19:36;101750.72;;;15.55;73.98
17525;BME280;40431;52.198;9.902;2023-10-08T11:22:02;101747.41;;;15.49;73.40
17525;BME280;40431;52.198;9.902;2023-10-08T11:24:33;101752.28;;;15.44;73.52
17525;BME280;40431;52.198;9.902;2023-10-08T11:27:00;101788.25;;;15.22;73.05
17525;BME280;40431;52.198;9.902;2023-10-08T11:29:41;101779.94;;;15.09;73.94
17525;BME280;40431;52.198;9.902;2023-10-08T11:32:09;101757.28;;;15.07;73.26
17525;BME280;40431;52.198;9.902;2023-10-08T11:34:38;101733.97;;;15.01;72.97
17525;BME280;40431;52.198;9.902;2023-10-08T11:37:05;101738.75;;;15.12;75.47
17525;BME280;40431;52.198;9.902;2023-10-08T11:39:40;101743.19;;;15.29;78.97
17525;BME280;40431;52.198;9.902;2023-10-08T11:42:11;101761.75;;;15.39;75.77
17525;BME280;40431;52.198;9.902;2023-10-08T11:45:02;101770.13;;;15.50;76.81
17525;BME280;40431;52.198;9.902;2023-10-08T11:47:43;101777.28;;;15.67;75.88
17525;BME280;40431;52.198;9.902;2023-10-08T11:50:10;101783.16;;;15.75;72.55
17525;BME280;40431;52.198;9.902;2023-10-08T11:52:41;101759.53;;;15.74;72.90
17525;BME280;40431;52.198;9.902;2023-10-08T11:55:10;101745.66;;;15.77;74.05
17525;BME280;40431;52.198;9.902;2023-10-08T11:57:41;101741.84;;;15.80;73.48
17525;BME280;40431;52.198;9.902;2023-10-08T12:00:11;101726.72;;;15.89;71.68
17525;BME280;40431;52.198;9.902;2023-10-08T12:02:44;101719.88;;;15.96;73.53
17525;BME280;40431;52.198;9.902;2023-10-08T12:05:10;101722.78;;;15.93;69.19
17525;BME280;40431;52.198;9.902;2023-10-08T12:07:45;101729.25;;;15.77;69.59
17525;BME280;40431;52.198;9.902;2023-10-08T12:10:13;101743.69;;;15.79;69.78
17525;BME280;40431;52.198;9.902;2023-10-08T12:12:42;101736.47;;;15.64;68.43
17525;BME280;40431;52.198;9.902;2023-10-08T12:15:09;101737.72;;;15.73;70.73
17525;BME280;40431;52.198;9.902;2023-10-08T12:17:37;101739.63;;;15.86;72.38
17525;BME280;40431;52.198;9.902;2023-10-08T12:20:05;101735.22;;;15.98;69.61
17525;BME280;40431;52.198;9.902;2023-10-08T12:22:48;101728.84;;;15.98;67.47
17525;BME280;40431;52.198;9.902;2023-10-08T12:25:16;101728.47;;;15.90;68.72
17525;BME280;40431;52.198;9.902;2023-10-08T12:27:42;101745.31;;;15.83;69.46
17525;BME280;40431;52.198;9.902;2023-10-08T12:30:10;101733.56;;;15.81;69.97
17525;BME280;40431;52.198;9.902;2023-10-08T12:32:37;101726.91;;;15.85;70.23
17525;BME280;40431;52.198;9.902;2023-10-08T12:35:07;101724.66;;;15.78;68.72
17525;BME280;40431;52.198;9.902;2023-10-08T12:37:38;101723.19;;;15.72;68.86
17525;BME280;40431;52.198;9.902;2023-10-08T12:40:06;101713.53;;;15.66;70.55
17525;BME280;40431;52.198;9.902;2023-10-08T12:42:39;101713.22;;;15.71;71.47
17525;BME280;40431;52.198;9.902;2023-10-08T12:45:09;101709.53;;;15.72;71.47
17525;BME280;40431;52.198;9.902;2023-10-08T12:47:37;101714.50;;;15.65;69.04
17525;BME280;40431;52.198;9.902;2023-10-08T12:50:05;101702.69;;;15.65;70.14
17525;BME280;40431;52.198;9.902;2023-10-08T12:52:33;101690.00;;;15.64;69.73
17525;BME280;40431;52.198;9.902;2023-10-08T12:55:00;101691.94;;;15.62;69.88
17525;BME280;40431;52.198;9.902;2023-10-08T12:57:29;101688.03;;;15.66;69.37
17525;BME280;40431;52.198;9.902;2023-10-08T12:59:59;101668.25;;;15.62;69.10
17525;BME280;40431;52.198;9.902;2023-10-08T13:02:29;101654.03;;;15.70;70.89